sensor_id;sensor_type;location;lat;lon;timestamp;P1;durP1;ratioP1;P2;durP2;ratioP2
19301;SDS011;9785;59.362;12.152;2023-07-13T00:00:01;15.73;;;2.93;;
19301;SDS011;9785;59.362;12.152;2023-07-13T00:02:34;8.40;;;3.00;;
19301;SDS011;9785;59.362;12.152;2023-07-13T00:05:05;13.17;;;2.90;;
19301;SDS011;9785;59.362;12.152;2023-07-13T00:07:33;15.23;;;2.90;;
19301;SDS011;9785;59.362;12.152;2023-07-13T00:10:03;16.67;;;2.90;;
19301;SDS011;9785;59.362;12.152;2023-07-13T00:12:34;12.77;;;2.97;;
19301;SDS011;9785;59.362;12.152;2023-07-13T00:15:04;7.90;;;2.67;;
19301;SDS011;9785;59.362;12.152;2023-07-13T00:17:33;13.07;;;3.30;;
19301;SDS011;9785;59.362;12.152;2023-07-13T00:20:01;20.77;;;3.20;;
19301;SDS011;9785;59.362;12.152;2023-07-13T00:22:32;11.17;;;3.37;;
19301;SDS011;9785;59.362;12.152;2023-07-13T00:25:01;10.23;;;2.60;;
19301;SDS011;9785;59.362;12.152;2023-07-13T00:27:29;9.63;;;2.90;;
19301;SDS011;9785;59.362;12.152;2023-07-13T00:29:58;7.80;;;2.70;;
19301;SDS011;9785;59.362;12.152;2023-07-13T00:32:27;18.87;;;3.67;;
19301;SDS011;9785;59.362;12.152;2023-07-13T00:34:57;11.60;;;2.70;;
19301;SDS011;9785;59.362;12.152;2023-07-13T00:37:26;20.93;;;3.30;;
19301;SDS011;9785;59.362;12.152;2023-07-13T00:39:57;11.27;;;3.07;;
19301;SDS011;9785;59.362;12.152;2023-07-13T00:42:25;13.50;;;3.10;;
19301;SDS011;9785;59.362;12.152;2023-07-13T00:45:01;14.40;;;3.00;;
19301;SDS011;9785;59.362;12.152;2023-07-13T00:47:30;12.20;;;3.17;;
19301;SDS011;9785;59.362;12.152;2023-07-13T00:49:58;11.33;;;3.07;;
19301;SDS011;9785;59.362;12.152;2023-07-13T00:52:27;12.03;;;2.90;;
19301;SDS011;9785;59.362;12.152;2023-07-13T00:54:57;11.77;;;3.13;;
19301;SDS011;9785;59.362;12.152;2023-07-13T00:57:26;8.87;;;2.97;;
19301;SDS011;9785;59.362;12.152;2023-07-13T00:59:55;15.90;;;3.03;;
19301;SDS011;9785;59.362;12.152;2023-07-13T01:02:25;18.90;;;3.07;;
19301;SDS011;9785;59.362;12.152;2023-07-13T01:04:54;10.13;;;2.70;;
19301;SDS011;9785;59.362;12.152;2023-07-13T01:07:22;12.87;;;3.00;;
19301;SDS011;9785;59.362;12.152;2023-07-13T01:09:51;9.53;;;2.73;;
19301;SDS011;9785;59.362;12.152;2023-07-13T01:12:21;12.40;;;2.70;;
19301;SDS011;9785;59.362;12.152;2023-07-13T01:14:56;15.33;;;2.87;;
19301;SDS011;9785;59.362;12.152;2023-07-13T01:17:27;15.07;;;3.03;;
19301;SDS011;9785;59.362;12.152;2023-07-13T01:19:56;15.77;;;2.73;;
19301;SDS011;9785;59.362;12.152;2023-07-13T01:22:26;9.67;;;2.40;;
19301;SDS011;9785;59.362;12.152;2023-07-13T01:24:54;10.27;;;2.60;;
19301;SDS011;9785;59.362;12.152;2023-07-13T01:27:25;11.87;;;3.30;;
19301;SDS011;9785;59.362;12.152;2023-07-13T01:29:54;9.17;;;2.63;;
19301;SDS011;9785;59.362;12.152;2023-07-13T01:32:30;18.07;;;3.37;;
19301;SDS011;9785;59.362;12.152;2023-07-13T01:34:59;13.27;;;3.23;;
19301;SDS011;9785;59.362;12.152;2023-07-13T01:37:29;11.07;;;2.83;;
19301;SDS011;9785;59.362;12.152;2023-07-13T01:39:59;20.63;;;2.87;;
19301;SDS011;9785;59.362;12.152;2023-07-13T01:42:28;8.20;;;2.53;;
19301;SDS011;9785;59.362;12.152;2023-07-13T01:44:57;17.80;;;2.80;;
19301;SDS011;9785;59.362;12.152;2023-07-13T01:47:26;12.43;;;3.10;;
19301;SDS011;9785;59.362;12.152;2023-07-13T01:49:55;12.90;;;2.40;;
19301;SDS011;9785;59.362;12.152;2023-07-13T01:52:23;12.83;;;2.97;;
19301;SDS011;9785;59.362;12.152;2023-07-13T01:54:53;14.03;;;2.70;;
19301;SDS011;9785;59.362;12.152;2023-07-13T01:57:22;11.97;;;2.67;;
19301;SDS011;9785;59.362;12.152;2023-07-13T01:59:51;15.67;;;2.90;;
19301;SDS011;9785;59.362;12.152;2023-07-13T02:02:19;10.17;;;3.00;;
19301;SDS011;9785;59.362;12.152;2023-07-13T02:04:48;10.63;;;2.47;;
19301;SDS011;9785;59.362;12.152;2023-07-13T02:07:17;9.93;;;2.50;;
19301;SDS011;9785;59.362;12.152;2023-07-13T02:09:46;11.30;;;2.30;;
19301;SDS011;9785;59.362;12.152;2023-07-13T02:12:15;13.77;;;2.37;;
19301;SDS011;9785;59.362;12.152;2023-07-13T02:14:44;10.30;;;2.50;;
19301;SDS011;9785;59.362;12.152;2023-07-13T02:17:13;9.60;;;2.20;;
19301;SDS011;9785;59.362;12.152;2023-07-13T02:19:41;8.63;;;2.20;;
19301;SDS011;9785;59.362;12.152;2023-07-13T02:22:10;11.10;;;1.90;;
19301;SDS011;9785;59.362;12.152;2023-07-13T02:24:39;13.17;;;2.30;;
19301;SDS011;9785;59.362;12.152;2023-07-13T02:27:07;7.87;;;2.30;;
19301;SDS011;9785;59.362;12.152;2023-07-13T02:29:37;10.17;;;2.20;;
19301;SDS011;9785;59.362;12.152;2023-07-13T02:32:06;6.47;;;2.20;;
19301;SDS011;9785;59.362;12.152;2023-07-13T02:34:35;9.23;;;2.43;;
19301;SDS011;9785;59.362;12.152;2023-07-13T02:37:03;8.97;;;2.27;;
19301;SDS011;9785;59.362;12.152;2023-07-13T02:39:32;12.97;;;2.20;;
19301;SDS011;9785;59.362;12.152;2023-07-13T02:42:01;9.80;;;2.33;;
19301;SDS011;9785;59.362;12.152;2023-07-13T02:44:29;14.93;;;2.40;;
19301;SDS011;9785;59.362;12.152;2023-07-13T02:46:59;10.17;;;2.17;;
19301;SDS011;9785;59.362;12.152;2023-07-13T02:49:28;5.93;;;1.90;;
19301;SDS011;9785;59.362;12.152;2023-07-13T02:51:57;7.90;;;2.03;;
19301;SDS011;9785;59.362;12.152;2023-07-13T02:54:26;14.07;;;2.30;;
19301;SDS011;9785;59.362;12.152;2023-07-13T02:56:54;14.23;;;2.43;;
19301;SDS011;9785;59.362;12.152;2023-07-13T02:59:23;10.13;;;2.60;;
19301;SDS011;9785;59.362;12.152;2023-07-13T03:01:51;12.57;;;2.50;;
19301;SDS011;9785;59.362;12.152;2023-07-13T03:04:21;12.30;;;2.57;;
19301;SDS011;9785;59.362;12.152;2023-07-13T03:06:50;12.90;;;2.80;;
19301;SDS011;9785;59.362;12.152;2023-07-13T03:09:19;8.23;;;1.97;;
19301;SDS011;9785;59.362;12.152;2023-07-13T03:11:47;9.73;;;2.43;;
19301;SDS011;9785;59.362;12.152;2023-07-13T03:14:16;9.37;;;2.40;;
19301;SDS011;9785;59.362;12.152;2023-07-13T03:16:45;8.70;;;2.73;;
19301;SDS011;9785;59.362;12.152;2023-07-13T03:19:13;7.80;;;2.50;;
19301;SDS011;9785;59.362;12.152;2023-07-13T03:21:43;9.77;;;2.10;;
19301;SDS011;9785;59.362;12.152;2023-07-13T03:24:12;5.80;;;2.30;;
19301;SDS011;9785;59.362;12.152;2023-07-13T03:26:40;6.83;;;2.33;;
19301;SDS011;9785;59.362;12.152;2023-07-13T03:29:09;10.37;;;2.47;;
19301;SDS011;9785;59.362;12.152;2023-07-13T03:31:37;9.33;;;2.60;;
19301;SDS011;9785;59.362;12.152;2023-07-13T03:34:06;9.73;;;2.40;;
19301;SDS011;9785;59.362;12.152;2023-07-13T03:36:34;11.40;;;3.03;;
19301;SDS011;9785;59.362;12.152;2023-07-13T03:39:04;7.67;;;2.27;;
19301;SDS011;9785;59.362;12.152;2023-07-13T03:41:35;8.60;;;2.63;;
19301;SDS011;9785;59.362;12.152;2023-07-13T03:44:04;7.63;;;2.40;;
19301;SDS011;9785;59.362;12.152;2023-07-13T03:46:33;11.47;;;2.50;;
19301;SDS011;9785;59.362;12.152;2023-07-13T03:49:01;11.20;;;2.57;;
19301;SDS011;9785;59.362;12.152;2023-07-13T03:51:30;6.97;;;2.80;;
19301;SDS011;9785;59.362;12.152;2023-07-13T03:53:59;7.57;;;2.47;;
19301;SDS011;9785;59.362;12.152;2023-07-13T03:56:30;11.57;;;3.07;;
19301;SDS011;9785;59.362;12.152;2023-07-13T03:58:59;12.47;;;2.50;;
19301;SDS011;9785;59.362;12.152;2023-07-13T04:01:28;6.57;;;2.23;;
19301;SDS011;9785;59.362;12.152;2023-07-13T04:03:57;9.20;;;3.20;;
19301;SDS011;9785;59.362;12.152;2023-07-13T04:06:29;11.80;;;2.40;;
19301;SDS011;9785;59.362;12.152;2023-07-13T04:09:00;10.37;;;2.60;;
19301;SDS011;9785;59.362;12.152;2023-07-13T04:11:33;12.10;;;2.80;;
19301;SDS011;9785;59.362;12.152;2023-07-13T04:14:03;13.60;;;2.40;;
19301;SDS011;9785;59.362;12.152;2023-07-13T04:16:32;9.77;;;2.50;;
19301;SDS011;9785;59.362;12.152;2023-07-13T04:19:01;9.17;;;2.43;;
19301;SDS011;9785;59.362;12.152;2023-07-13T04:21:30;13.30;;;2.70;;
19301;SDS011;9785;59.362;12.152;2023-07-13T04:23:59;10.33;;;2.40;;
19301;SDS011;9785;59.362;12.152;2023-07-13T04:26:27;7.83;;;2.60;;
19301;SDS011;9785;59.362;12.152;2023-07-13T04:28:57;6.47;;;2.57;;
19301;SDS011;9785;59.362;12.152;2023-07-13T04:31:26;7.87;;;2.70;;
19301;SDS011;9785;59.362;12.152;2023-07-13T04:33:55;8.43;;;2.30;;
19301;SDS011;9785;59.362;12.152;2023-07-13T04:36:24;12.53;;;2.60;;
19301;SDS011;9785;59.362;12.152;2023-07-13T04:38:54;5.37;;;2.27;;
19301;SDS011;9785;59.362;12.152;2023-07-13T04:41:22;6.70;;;2.13;;
19301;SDS011;9785;59.362;12.152;2023-07-13T04:43:51;12.10;;;2.70;;
19301;SDS011;9785;59.362;12.152;2023-07-13T04:46:24;13.17;;;2.40;;
19301;SDS011;9785;59.362;12.152;2023-07-13T04:48:53;9.27;;;2.53;;
19301;SDS011;9785;59.362;12.152;2023-07-13T04:51:21;8.53;;;2.43;;
19301;SDS011;9785;59.362;12.152;2023-07-13T04:53:50;5.97;;;2.10;;
19301;SDS011;9785;59.362;12.152;2023-07-13T04:56:25;7.80;;;2.30;;
19301;SDS011;9785;59.362;12.152;2023-07-13T04:58:53;10.00;;;2.00;;
19301;SDS011;9785;59.362;12.152;2023-07-13T05:01:23;5.03;;;1.63;;
19301;SDS011;9785;59.362;12.152;2023-07-13T05:03:53;7.83;;;2.40;;
19301;SDS011;9785;59.362;12.152;2023-07-13T05:06:24;10.17;;;2.20;;
19301;SDS011;9785;59.362;12.152;2023-07-13T05:08:52;8.83;;;2.10;;
19301;SDS011;9785;59.362;12.152;2023-07-13T05:11:21;8.63;;;2.10;;
19301;SDS011;9785;59.362;12.152;2023-07-13T05:13:49;9.80;;;2.20;;
19301;SDS011;9785;59.362;12.152;2023-07-13T05:16:18;7.80;;;2.27;;
19301;SDS011;9785;59.362;12.152;2023-07-13T05:18:48;8.33;;;2.20;;
19301;SDS011;9785;59.362;12.152;2023-07-13T05:21:17;11.23;;;2.30;;
19301;SDS011;9785;59.362;12.152;2023-07-13T05:23:47;8.77;;;2.47;;
19301;SDS011;9785;59.362;12.152;2023-07-13T05:26:16;7.60;;;2.00;;
19301;SDS011;9785;59.362;12.152;2023-07-13T05:28:44;7.13;;;1.90;;
19301;SDS011;9785;59.362;12.152;2023-07-13T05:31:13;8.73;;;1.60;;
19301;SDS011;9785;59.362;12.152;2023-07-13T05:33:42;6.23;;;1.60;;
19301;SDS011;9785;59.362;12.152;2023-07-13T05:36:12;3.33;;;1.50;;
19301;SDS011;9785;59.362;12.152;2023-07-13T05:38:41;4.83;;;1.77;;
19301;SDS011;9785;59.362;12.152;2023-07-13T05:41:09;6.80;;;1.40;;
19301;SDS011;9785;59.362;12.152;2023-07-13T05:43:38;4.40;;;1.13;;
19301;SDS011;9785;59.362;12.152;2023-07-13T05:46:07;3.30;;;1.40;;
19301;SDS011;9785;59.362;12.152;2023-07-13T05:48:35;7.07;;;1.47;;
19301;SDS011;9785;59.362;12.152;2023-07-13T05:51:04;5.33;;;1.80;;
19301;SDS011;9785;59.362;12.152;2023-07-13T05:53:34;2.33;;;1.33;;
19301;SDS011;9785;59.362;12.152;2023-07-13T05:56:03;3.53;;;1.43;;
19301;SDS011;9785;59.362;12.152;2023-07-13T05:58:31;2.47;;;1.20;;
19301;SDS011;9785;59.362;12.152;2023-07-13T06:01:01;9.03;;;1.70;;
19301;SDS011;9785;59.362;12.152;2023-07-13T06:03:31;4.70;;;1.50;;
19301;SDS011;9785;59.362;12.152;2023-07-13T06:05:59;3.03;;;1.30;;
19301;SDS011;9785;59.362;12.152;2023-07-13T06:08:28;8.37;;;1.50;;
19301;SDS011;9785;59.362;12.152;2023-07-13T06:11:02;5.23;;;1.20;;
19301;SDS011;9785;59.362;12.152;2023-07-13T06:13:31;8.03;;;1.37;;
19301;SDS011;9785;59.362;12.152;2023-07-13T06:16:00;5.50;;;1.17;;
19301;SDS011;9785;59.362;12.152;2023-07-13T06:18:31;2.10;;;1.10;;
19301;SDS011;9785;59.362;12.152;2023-07-13T06:20:59;3.87;;;1.10;;
19301;SDS011;9785;59.362;12.152;2023-07-13T06:23:28;6.97;;;1.30;;
19301;SDS011;9785;59.362;12.152;2023-07-13T06:25:56;6.60;;;1.30;;
19301;SDS011;9785;59.362;12.152;2023-07-13T06:28:26;3.53;;;1.07;;
19301;SDS011;9785;59.362;12.152;2023-07-13T06:30:55;9.67;;;1.30;;
19301;SDS011;9785;59.362;12.152;2023-07-13T06:33:24;2.93;;;1.13;;
19301;SDS011;9785;59.362;12.152;2023-07-13T06:35:52;5.00;;;1.10;;
19301;SDS011;9785;59.362;12.152;2023-07-13T06:38:22;4.77;;;0.83;;
19301;SDS011;9785;59.362;12.152;2023-07-13T06:40:51;7.53;;;1.27;;
19301;SDS011;9785;59.362;12.152;2023-07-13T06:43:20;2.83;;;1.10;;
19301;SDS011;9785;59.362;12.152;2023-07-13T06:45:50;3.67;;;0.97;;
19301;SDS011;9785;59.362;12.152;2023-07-13T06:48:19;3.33;;;0.90;;
19301;SDS011;9785;59.362;12.152;2023-07-13T06:50:48;2.83;;;0.73;;
19301;SDS011;9785;59.362;12.152;2023-07-13T06:53:17;4.27;;;1.03;;
19301;SDS011;9785;59.362;12.152;2023-07-13T06:55:46;4.73;;;0.83;;
19301;SDS011;9785;59.362;12.152;2023-07-13T06:58:16;2.70;;;0.87;;
19301;SDS011;9785;59.362;12.152;2023-07-13T07:00:45;2.47;;;0.87;;
19301;SDS011;9785;59.362;12.152;2023-07-13T07:03:15;1.63;;;0.87;;
19301;SDS011;9785;59.362;12.152;2023-07-13T07:05:44;1.97;;;0.90;;
19301;SDS011;9785;59.362;12.152;2023-07-13T07:08:12;3.17;;;1.10;;
19301;SDS011;9785;59.362;12.152;2023-07-13T07:10:41;5.23;;;1.07;;
19301;SDS011;9785;59.362;12.152;2023-07-13T07:13:10;1.37;;;0.90;;
19301;SDS011;9785;59.362;12.152;2023-07-13T07:15:38;3.50;;;1.00;;
19301;SDS011;9785;59.362;12.152;2023-07-13T07:18:08;1.97;;;0.90;;
19301;SDS011;9785;59.362;12.152;2023-07-13T07:20:38;2.00;;;0.80;;
19301;SDS011;9785;59.362;12.152;2023-07-13T07:23:06;4.87;;;0.80;;
19301;SDS011;9785;59.362;12.152;2023-07-13T07:25:35;3.43;;;1.00;;
19301;SDS011;9785;59.362;12.152;2023-07-13T07:28:08;3.00;;;0.90;;
19301;SDS011;9785;59.362;12.152;2023-07-13T07:30:41;3.03;;;0.97;;
19301;SDS011;9785;59.362;12.152;2023-07-13T07:33:13;1.80;;;0.70;;
19301;SDS011;9785;59.362;12.152;2023-07-13T07:35:44;4.03;;;1.00;;
19301;SDS011;9785;59.362;12.152;2023-07-13T07:38:32;2.73;;;0.83;;
19301;SDS011;9785;59.362;12.152;2023-07-13T07:41:02;2.10;;;0.87;;
19301;SDS011;9785;59.362;12.152;2023-07-13T07:43:34;3.83;;;0.93;;
19301;SDS011;9785;59.362;12.152;2023-07-13T07:46:03;2.63;;;0.90;;
19301;SDS011;9785;59.362;12.152;2023-07-13T07:48:31;3.50;;;1.03;;
19301;SDS011;9785;59.362;12.152;2023-07-13T07:51:01;4.50;;;0.93;;
19301;SDS011;9785;59.362;12.152;2023-07-13T07:53:30;3.13;;;1.00;;
19301;SDS011;9785;59.362;12.152;2023-07-13T07:55:59;1.80;;;0.67;;
19301;SDS011;9785;59.362;12.152;2023-07-13T07:58:48;2.10;;;0.70;;
19301;SDS011;9785;59.362;12.152;2023-07-13T08:01:20;1.90;;;0.83;;
19301;SDS011;9785;59.362;12.152;2023-07-13T08:03:51;5.17;;;0.90;;
19301;SDS011;9785;59.362;12.152;2023-07-13T08:06:24;5.50;;;0.93;;
19301;SDS011;9785;59.362;12.152;2023-07-13T08:08:55;5.77;;;1.30;;
19301;SDS011;9785;59.362;12.152;2023-07-13T08:11:24;2.77;;;0.90;;
19301;SDS011;9785;59.362;12.152;2023-07-13T08:13:56;1.40;;;0.77;;
19301;SDS011;9785;59.362;12.152;2023-07-13T08:16:24;1.63;;;0.80;;
19301;SDS011;9785;59.362;12.152;2023-07-13T08:18:53;2.80;;;1.20;;
19301;SDS011;9785;59.362;12.152;2023-07-13T08:21:22;4.23;;;1.10;;
19301;SDS011;9785;59.362;12.152;2023-07-13T08:23:52;1.77;;;0.80;;
19301;SDS011;9785;59.362;12.152;2023-07-13T08:26:20;2.13;;;0.80;;
19301;SDS011;9785;59.362;12.152;2023-07-13T08:28:49;2.77;;;0.93;;
19301;SDS011;9785;59.362;12.152;2023-07-13T08:31:17;1.83;;;1.00;;
19301;SDS011;9785;59.362;12.152;2023-07-13T08:33:46;1.90;;;1.07;;
19301;SDS011;9785;59.362;12.152;2023-07-13T08:36:15;2.17;;;0.77;;
19301;SDS011;9785;59.362;12.152;2023-07-13T08:38:43;3.60;;;1.17;;
19301;SDS011;9785;59.362;12.152;2023-07-13T08:41:14;2.03;;;0.73;;
19301;SDS011;9785;59.362;12.152;2023-07-13T08:43:44;5.40;;;1.10;;
19301;SDS011;9785;59.362;12.152;2023-07-13T08:46:15;2.23;;;0.90;;
19301;SDS011;9785;59.362;12.152;2023-07-13T08:48:46;4.57;;;1.00;;
19301;SDS011;9785;59.362;12.152;2023-07-13T08:51:20;1.03;;;0.60;;
19301;SDS011;9785;59.362;12.152;2023-07-13T08:53:52;3.20;;;0.80;;
19301;SDS011;9785;59.362;12.152;2023-07-13T08:56:24;2.87;;;0.80;;
19301;SDS011;9785;59.362;12.152;2023-07-13T08:58:55;1.50;;;0.80;;
19301;SDS011;9785;59.362;12.152;2023-07-13T09:01:26;4.50;;;0.70;;
19301;SDS011;9785;59.362;12.152;2023-07-13T09:03:57;1.40;;;0.80;;
19301;SDS011;9785;59.362;12.152;2023-07-13T09:06:30;1.47;;;0.70;;
19301;SDS011;9785;59.362;12.152;2023-07-13T09:09:01;5.87;;;0.83;;
19301;SDS011;9785;59.362;12.152;2023-07-13T09:11:35;3.37;;;0.90;;
19301;SDS011;9785;59.362;12.152;2023-07-13T09:14:10;4.40;;;1.10;;
19301;SDS011;9785;59.362;12.152;2023-07-13T09:16:43;0.93;;;0.83;;
19301;SDS011;9785;59.362;12.152;2023-07-13T09:19:14;1.60;;;0.87;;
19301;SDS011;9785;59.362;12.152;2023-07-13T09:21:43;1.70;;;1.00;;
19301;SDS011;9785;59.362;12.152;2023-07-13T09:24:24;3.93;;;1.37;;
19301;SDS011;9785;59.362;12.152;2023-07-13T09:26:56;5.70;;;1.00;;
19301;SDS011;9785;59.362;12.152;2023-07-13T09:29:27;3.28;;;1.10;;
19301;SDS011;9785;59.362;12.152;2023-07-13T09:31:57;4.37;;;0.80;;
19301;SDS011;9785;59.362;12.152;2023-07-13T09:34:29;4.03;;;1.30;;
19301;SDS011;9785;59.362;12.152;2023-07-13T09:36:58;3.63;;;1.00;;
19301;SDS011;9785;59.362;12.152;2023-07-13T09:39:27;1.83;;;0.90;;
19301;SDS011;9785;59.362;12.152;2023-07-13T09:42:00;3.37;;;0.97;;
19301;SDS011;9785;59.362;12.152;2023-07-13T09:44:30;3.10;;;1.00;;
19301;SDS011;9785;59.362;12.152;2023-07-13T09:46:59;3.70;;;0.90;;
19301;SDS011;9785;59.362;12.152;2023-07-13T09:49:29;2.00;;;0.87;;
19301;SDS011;9785;59.362;12.152;2023-07-13T09:52:02;1.13;;;0.80;;
19301;SDS011;9785;59.362;12.152;2023-07-13T09:54:33;4.00;;;0.80;;
19301;SDS011;9785;59.362;12.152;2023-07-13T09:57:12;3.47;;;0.70;;
19301;SDS011;9785;59.362;12.152;2023-07-13T09:59:44;1.43;;;0.73;;
19301;SDS011;9785;59.362;12.152;2023-07-13T10:02:23;1.50;;;0.60;;
19301;SDS011;9785;59.362;12.152;2023-07-13T10:04:55;1.70;;;0.70;;
19301;SDS011;9785;59.362;12.152;2023-07-13T10:07:24;2.17;;;0.80;;
19301;SDS011;9785;59.362;12.152;2023-07-13T10:09:56;0.80;;;0.57;;
19301;SDS011;9785;59.362;12.152;2023-07-13T10:12:26;1.67;;;0.87;;
19301;SDS011;9785;59.362;12.152;2023-07-13T10:14:56;1.20;;;0.90;;
19301;SDS011;9785;59.362;12.152;2023-07-13T10:17:42;2.20;;;0.90;;
19301;SDS011;9785;59.362;12.152;2023-07-13T10:20:12;2.50;;;0.90;;
19301;SDS011;9785;59.362;12.152;2023-07-13T10:22:42;1.17;;;0.83;;
19301;SDS011;9785;59.362;12.152;2023-07-13T10:25:16;3.67;;;1.50;;
19301;SDS011;9785;59.362;12.152;2023-07-13T10:27:47;1.20;;;0.90;;
19301;SDS011;9785;59.362;12.152;2023-07-13T10:30:17;4.43;;;0.70;;
19301;SDS011;9785;59.362;12.152;2023-07-13T10:32:47;2.10;;;0.90;;
19301;SDS011;9785;59.362;12.152;2023-07-13T10:35:16;2.87;;;0.80;;
19301;SDS011;9785;59.362;12.152;2023-07-13T10:37:48;2.40;;;0.63;;
19301;SDS011;9785;59.362;12.152;2023-07-13T10:40:19;3.40;;;0.87;;
19301;SDS011;9785;59.362;12.152;2023-07-13T10:42:50;2.40;;;0.87;;
19301;SDS011;9785;59.362;12.152;2023-07-13T10:45:20;1.37;;;0.70;;
19301;SDS011;9785;59.362;12.152;2023-07-13T10:47:49;3.50;;;0.80;;
19301;SDS011;9785;59.362;12.152;2023-07-13T10:50:21;1.73;;;0.70;;
19301;SDS011;9785;59.362;12.152;2023-07-13T10:52:51;1.97;;;0.77;;
19301;SDS011;9785;59.362;12.152;2023-07-13T10:55:31;2.47;;;0.80;;
19301;SDS011;9785;59.362;12.152;2023-07-13T10:58:13;0.60;;;0.60;;
19301;SDS011;9785;59.362;12.152;2023-07-13T11:00:43;2.10;;;0.60;;
19301;SDS011;9785;59.362;12.152;2023-07-13T11:03:13;1.30;;;0.40;;
19301;SDS011;9785;59.362;12.152;2023-07-13T11:05:42;0.43;;;0.43;;
19301;SDS011;9785;59.362;12.152;2023-07-13T11:08:16;1.43;;;0.60;;
19301;SDS011;9785;59.362;12.152;2023-07-13T11:10:48;1.53;;;0.60;;
19301;SDS011;9785;59.362;12.152;2023-07-13T11:13:38;2.93;;;0.77;;
19301;SDS011;9785;59.362;12.152;2023-07-13T11:16:12;1.67;;;0.73;;
19301;SDS011;9785;59.362;12.152;2023-07-13T11:18:44;2.33;;;0.90;;
19301;SDS011;9785;59.362;12.152;2023-07-13T11:21:13;2.00;;;0.60;;
19301;SDS011;9785;59.362;12.152;2023-07-13T11:24:01;0.83;;;0.50;;
19301;SDS011;9785;59.362;12.152;2023-07-13T11:26:41;2.30;;;0.60;;
19301;SDS011;9785;59.362;12.152;2023-07-13T11:29:14;0.93;;;0.60;;
19301;SDS011;9785;59.362;12.152;2023-07-13T11:31:51;2.73;;;0.80;;
19301;SDS011;9785;59.362;12.152;2023-07-13T11:34:21;1.23;;;0.53;;
19301;SDS011;9785;59.362;12.152;2023-07-13T11:36:52;1.03;;;0.50;;
19301;SDS011;9785;59.362;12.152;2023-07-13T11:39:21;1.00;;;0.50;;
19301;SDS011;9785;59.362;12.152;2023-07-13T11:41:52;1.60;;;0.60;;
19301;SDS011;9785;59.362;12.152;2023-07-13T11:44:24;3.27;;;0.60;;
19301;SDS011;9785;59.362;12.152;2023-07-13T11:46:54;1.27;;;0.60;;
19301;SDS011;9785;59.362;12.152;2023-07-13T11:49:23;1.80;;;0.60;;
19301;SDS011;9785;59.362;12.152;2023-07-13T11:51:53;1.13;;;0.60;;
19301;SDS011;9785;59.362;12.152;2023-07-13T11:54:23;2.17;;;0.60;;
19301;SDS011;9785;59.362;12.152;2023-07-13T11:56:52;2.27;;;0.60;;
19301;SDS011;9785;59.362;12.152;2023-07-13T11:59:23;0.60;;;0.43;;
19301;SDS011;9785;59.362;12.152;2023-07-13T12:01:52;1.53;;;0.50;;
19301;SDS011;9785;59.362;12.152;2023-07-13T12:04:22;1.73;;;0.40;;
19301;SDS011;9785;59.362;12.152;2023-07-13T12:06:55;0.60;;;0.60;;
19301;SDS011;9785;59.362;12.152;2023-07-13T12:09:26;4.27;;;0.87;;
19301;SDS011;9785;59.362;12.152;2023-07-13T12:11:56;1.40;;;0.50;;
19301;SDS011;9785;59.362;12.152;2023-07-13T12:14:28;1.80;;;0.60;;
19301;SDS011;9785;59.362;12.152;2023-07-13T12:16:56;0.57;;;0.50;;
19301;SDS011;9785;59.362;12.152;2023-07-13T12:19:25;0.83;;;0.50;;
19301;SDS011;9785;59.362;12.152;2023-07-13T12:21:55;2.00;;;0.80;;
19301;SDS011;9785;59.362;12.152;2023-07-13T12:24:25;2.53;;;0.60;;
19301;SDS011;9785;59.362;12.152;2023-07-13T12:26:55;2.77;;;1.00;;
19301;SDS011;9785;59.362;12.152;2023-07-13T12:29:23;1.57;;;0.60;;
19301;SDS011;9785;59.362;12.152;2023-07-13T12:31:53;2.07;;;0.53;;
19301;SDS011;9785;59.362;12.152;2023-07-13T12:34:23;1.23;;;0.50;;
19301;SDS011;9785;59.362;12.152;2023-07-13T12:36:53;0.70;;;0.70;;
19301;SDS011;9785;59.362;12.152;2023-07-13T12:39:22;1.80;;;0.60;;
19301;SDS011;9785;59.362;12.152;2023-07-13T12:41:52;0.53;;;0.50;;
19301;SDS011;9785;59.362;12.152;2023-07-13T12:44:25;1.67;;;0.70;;
19301;SDS011;9785;59.362;12.152;2023-07-13T12:47:03;2.22;;;0.50;;
19301;SDS011;9785;59.362;12.152;2023-07-13T12:49:32;1.65;;;0.60;;
19301;SDS011;9785;59.362;12.152;2023-07-13T12:52:03;2.20;;;0.63;;
19301;SDS011;9785;59.362;12.152;2023-07-13T12:54:32;1.65;;;0.60;;
19301;SDS011;9785;59.362;12.152;2023-07-13T12:57:02;2.40;;;0.60;;
19301;SDS011;9785;59.362;12.152;2023-07-13T12:59:35;1.30;;;0.60;;
19301;SDS011;9785;59.362;12.152;2023-07-13T13:02:15;1.75;;;0.70;;
19301;SDS011;9785;59.362;12.152;2023-07-13T13:04:46;1.60;;;0.50;;
19301;SDS011;9785;59.362;12.152;2023-07-13T13:07:16;0.60;;;0.60;;
19301;SDS011;9785;59.362;12.152;2023-07-13T13:09:46;1.02;;;0.60;;
19301;SDS011;9785;59.362;12.152;2023-07-13T13:12:15;0.70;;;0.70;;
19301;SDS011;9785;59.362;12.152;2023-07-13T13:14:43;1.33;;;0.70;;
19301;SDS011;9785;59.362;12.152;2023-07-13T13:17:18;1.38;;;0.60;;
19301;SDS011;9785;59.362;12.152;2023-07-13T13:19:47;1.58;;;0.80;;
19301;SDS011;9785;59.362;12.152;2023-07-13T13:22:16;0.75;;;0.60;;
19301;SDS011;9785;59.362;12.152;2023-07-13T13:24:45;0.75;;;0.70;;
19301;SDS011;9785;59.362;12.152;2023-07-13T13:27:15;1.52;;;0.77;;
19301;SDS011;9785;59.362;12.152;2023-07-13T13:29:44;0.88;;;0.43;;
19301;SDS011;9785;59.362;12.152;2023-07-13T13:32:13;0.60;;;0.47;;
19301;SDS011;9785;59.362;12.152;2023-07-13T13:34:43;1.08;;;0.60;;
19301;SDS011;9785;59.362;12.152;2023-07-13T13:37:16;2.05;;;0.80;;
19301;SDS011;9785;59.362;12.152;2023-07-13T13:39:44;0.85;;;0.57;;
19301;SDS011;9785;59.362;12.152;2023-07-13T13:42:32;1.15;;;0.60;;
19301;SDS011;9785;59.362;12.152;2023-07-13T13:45:00;3.80;;;0.60;;
19301;SDS011;9785;59.362;12.152;2023-07-13T13:47:29;2.43;;;0.63;;
19301;SDS011;9785;59.362;12.152;2023-07-13T13:50:01;0.80;;;0.67;;
19301;SDS011;9785;59.362;12.152;2023-07-13T13:52:29;1.27;;;0.50;;
19301;SDS011;9785;59.362;12.152;2023-07-13T13:54:58;1.23;;;0.47;;
19301;SDS011;9785;59.362;12.152;2023-07-13T13:57:27;0.77;;;0.40;;
19301;SDS011;9785;59.362;12.152;2023-07-13T13:59:57;0.70;;;0.50;;
19301;SDS011;9785;59.362;12.152;2023-07-13T14:02:26;0.90;;;0.50;;
19301;SDS011;9785;59.362;12.152;2023-07-13T14:04:56;2.00;;;0.50;;
19301;SDS011;9785;59.362;12.152;2023-07-13T14:07:27;2.03;;;0.70;;
19301;SDS011;9785;59.362;12.152;2023-07-13T14:09:57;0.90;;;0.57;;
19301;SDS011;9785;59.362;12.152;2023-07-13T14:12:26;1.47;;;0.80;;
19301;SDS011;9785;59.362;12.152;2023-07-13T14:14:55;1.03;;;0.40;;
19301;SDS011;9785;59.362;12.152;2023-07-13T14:17:25;0.60;;;0.50;;
19301;SDS011;9785;59.362;12.152;2023-07-13T14:19:55;1.00;;;0.60;;
19301;SDS011;9785;59.362;12.152;2023-07-13T14:22:24;0.60;;;0.60;;
19301;SDS011;9785;59.362;12.152;2023-07-13T14:24:55;2.00;;;0.70;;
19301;SDS011;9785;59.362;12.152;2023-07-13T14:27:25;1.10;;;0.57;;
19301;SDS011;9785;59.362;12.152;2023-07-13T14:29:54;1.80;;;0.60;;
19301;SDS011;9785;59.362;12.152;2023-07-13T14:32:22;0.83;;;0.60;;
19301;SDS011;9785;59.362;12.152;2023-07-13T14:34:51;1.80;;;0.77;;
19301;SDS011;9785;59.362;12.152;2023-07-13T14:37:19;1.63;;;0.70;;
19301;SDS011;9785;59.362;12.152;2023-07-13T14:39:48;1.43;;;0.70;;
19301;SDS011;9785;59.362;12.152;2023-07-13T14:42:20;1.57;;;0.77;;
19301;SDS011;9785;59.362;12.152;2023-07-13T14:44:49;1.33;;;0.70;;
19301;SDS011;9785;59.362;12.152;2023-07-13T14:47:18;1.15;;;0.80;;
19301;SDS011;9785;59.362;12.152;2023-07-13T14:49:47;0.85;;;0.80;;
19301;SDS011;9785;59.362;12.152;2023-07-13T14:52:16;2.53;;;0.65;;
19301;SDS011;9785;59.362;12.152;2023-07-13T14:54:45;1.50;;;0.80;;
19301;SDS011;9785;59.362;12.152;2023-07-13T14:57:15;0.75;;;0.65;;
19301;SDS011;9785;59.362;12.152;2023-07-13T14:59:46;2.47;;;0.95;;
19301;SDS011;9785;59.362;12.152;2023-07-13T15:02:15;1.52;;;0.82;;